BIQ weather

Biarritz-Anglet-Bayonne Airport
Biarritz/Anglet/Bayonne, Aquitaine, France

Public forecast

Using degrees Celsius for public forecast. Weather courtesy of forecast.io.

Current aviation weather report (METAR) for Biarritz-Anglet-Bayonne Airport

Retrieved 2019/10/18 09:30 UTC (16 minutes ago):

LFBZ 180930Z AUTO VRB02KT 9999 FEW018 SCT023 OVC036 16/15 Q1017 NOSIG

Aviation forecast (TAF) for Biarritz-Anglet-Bayonne Airport

Retrieved 2019/10/18 06:51 UTC (3 hours ago):

TAF LFBZ 180500Z 1806/1906 30010KT 9999 BKN040 TEMPO 1806/1809 4000 -RA BKN005 BKN020 TEMPO 1815/1906 4000 SHRA BKN009 BKN020TCU